sensor_id;sensor_type;location;lat;lon;timestamp;temperature;humidity
30467;DHT22;17258;52.560;13.046;2023-09-30T00:07:37;22.10;58.30
30467;DHT22;17258;52.560;13.046;2023-09-30T00:17:37;21.90;58.40
30467;DHT22;17258;52.560;13.046;2023-09-30T00:27:38;21.70;58.30
30467;DHT22;17258;52.560;13.046;2023-09-30T00:37:39;21.50;58.30
30467;DHT22;17258;52.560;13.046;2023-09-30T00:47:40;21.20;58.20
30467;DHT22;17258;52.560;13.046;2023-09-30T00:57:42;21.00;58.30
30467;DHT22;17258;52.560;13.046;2023-09-30T01:07:44;20.90;58.30
30467;DHT22;17258;52.560;13.046;2023-09-30T01:17:45;20.70;58.40
30467;DHT22;17258;52.560;13.046;2023-09-30T01:27:45;20.50;58.40
30467;DHT22;17258;52.560;13.046;2023-09-30T01:37:46;20.40;59.30
30467;DHT22;17258;52.560;13.046;2023-09-30T01:47:47;20.20;58.60
30467;DHT22;17258;52.560;13.046;2023-09-30T01:57:47;20.10;58.60
30467;DHT22;17258;52.560;13.046;2023-09-30T02:07:48;19.90;58.60
30467;DHT22;17258;52.560;13.046;2023-09-30T02:17:49;19.80;58.80
30467;DHT22;17258;52.560;13.046;2023-09-30T02:27:50;19.60;59.00
30467;DHT22;17258;52.560;13.046;2023-09-30T02:37:51;19.50;59.20
30467;DHT22;17258;52.560;13.046;2023-09-30T02:47:52;19.30;59.30
30467;DHT22;17258;52.560;13.046;2023-09-30T02:57:53;19.20;59.40
30467;DHT22;17258;52.560;13.046;2023-09-30T03:07:53;19.10;59.50
30467;DHT22;17258;52.560;13.046;2023-09-30T03:17:55;19.10;59.60
30467;DHT22;17258;52.560;13.046;2023-09-30T03:27:56;19.00;59.60
30467;DHT22;17258;52.560;13.046;2023-09-30T03:37:57;18.90;59.60
30467;DHT22;17258;52.560;13.046;2023-09-30T03:47:58;18.80;59.70
30467;DHT22;17258;52.560;13.046;2023-09-30T03:57:59;18.70;59.80
30467;DHT22;17258;52.560;13.046;2023-09-30T04:08:00;18.50;59.80
30467;DHT22;17258;52.560;13.046;2023-09-30T04:18:00;18.40;59.90
30467;DHT22;17258;52.560;13.046;2023-09-30T04:28:01;18.40;60.00
30467;DHT22;17258;52.560;13.046;2023-09-30T04:38:03;18.30;60.80
30467;DHT22;17258;52.560;13.046;2023-09-30T04:48:04;18.20;60.10
30467;DHT22;17258;52.560;13.046;2023-09-30T04:58:05;18.10;60.20
30467;DHT22;17258;52.560;13.046;2023-09-30T05:08:06;18.10;60.40
30467;DHT22;17258;52.560;13.046;2023-09-30T05:18:07;18.00;60.40
30467;DHT22;17258;52.560;13.046;2023-09-30T05:28:09;18.00;60.50
30467;DHT22;17258;52.560;13.046;2023-09-30T05:38:11;17.90;60.50
30467;DHT22;17258;52.560;13.046;2023-09-30T05:48:12;17.90;60.50
30467;DHT22;17258;52.560;13.046;2023-09-30T05:58:14;17.90;60.70
30467;DHT22;17258;52.560;13.046;2023-09-30T06:08:16;17.90;61.80
30467;DHT22;17258;52.560;13.046;2023-09-30T06:18:17;17.90;61.40
30467;DHT22;17258;52.560;13.046;2023-09-30T06:28:18;17.90;61.50
30467;DHT22;17258;52.560;13.046;2023-09-30T06:38:21;18.00;61.80
30467;DHT22;17258;52.560;13.046;2023-09-30T06:48:26;18.00;62.10
30467;DHT22;17258;52.560;13.046;2023-09-30T06:58:27;18.10;62.00
30467;DHT22;17258;52.560;13.046;2023-09-30T07:08:28;18.20;62.30
30467;DHT22;17258;52.560;13.046;2023-09-30T07:18:32;18.30;62.70
30467;DHT22;17258;52.560;13.046;2023-09-30T07:28:33;18.40;62.70
30467;DHT22;17258;52.560;13.046;2023-09-30T07:38:34;18.60;62.90
30467;DHT22;17258;52.560;13.046;2023-09-30T07:48:34;18.70;62.70
30467;DHT22;17258;52.560;13.046;2023-09-30T07:58:35;18.80;62.60
30467;DHT22;17258;52.560;13.046;2023-09-30T08:08:36;19.00;62.70
30467;DHT22;17258;52.560;13.046;2023-09-30T08:18:37;19.20;62.80
30467;DHT22;17258;52.560;13.046;2023-09-30T08:28:37;19.30;63.00
30467;DHT22;17258;52.560;13.046;2023-09-30T08:38:39;19.50;62.60
30467;DHT22;17258;52.560;13.046;2023-09-30T08:48:41;19.70;62.50
30467;DHT22;17258;52.560;13.046;2023-09-30T08:58:41;19.80;63.10
30467;DHT22;17258;52.560;13.046;2023-09-30T09:08:42;19.90;62.50
30467;DHT22;17258;52.560;13.046;2023-09-30T09:18:43;20.10;62.60
30467;DHT22;17258;52.560;13.046;2023-09-30T09:28:43;20.30;62.60
30467;DHT22;17258;52.560;13.046;2023-09-30T09:38:46;20.50;62.50
30467;DHT22;17258;52.560;13.046;2023-09-30T09:48:48;20.70;62.20
30467;DHT22;17258;52.560;13.046;2023-09-30T09:58:49;20.90;62.10
30467;DHT22;17258;52.560;13.046;2023-09-30T10:08:51;21.20;61.90
30467;DHT22;17258;52.560;13.046;2023-09-30T10:19:15;21.40;61.30
30467;DHT22;17258;52.560;13.046;2023-09-30T10:29:18;21.60;60.80
30467;DHT22;17258;52.560;13.046;2023-09-30T10:39:55;21.80;61.10
30467;DHT22;17258;52.560;13.046;2023-09-30T10:49:58;22.00;60.00
30467;DHT22;17258;52.560;13.046;2023-09-30T11:10:14;22.40;59.60
30467;DHT22;17258;52.560;13.046;2023-09-30T11:20:17;22.60;59.50
30467;DHT22;17258;52.560;13.046;2023-09-30T11:30:21;22.80;59.20
30467;DHT22;17258;52.560;13.046;2023-09-30T11:40:22;22.90;58.60
30467;DHT22;17258;52.560;13.046;2023-09-30T11:50:24;23.00;58.50
30467;DHT22;17258;52.560;13.046;2023-09-30T12:00:25;23.20;58.60
30467;DHT22;17258;52.560;13.046;2023-09-30T12:10:26;23.40;57.50
30467;DHT22;17258;52.560;13.046;2023-09-30T12:20:27;23.60;56.60
30467;DHT22;17258;52.560;13.046;2023-09-30T12:30:27;23.70;56.40
30467;DHT22;17258;52.560;13.046;2023-09-30T12:40:28;23.90;55.30
30467;DHT22;17258;52.560;13.046;2023-09-30T12:50:29;23.90;55.10
30467;DHT22;17258;52.560;13.046;2023-09-30T13:00:31;23.90;55.20
30467;DHT22;17258;52.560;13.046;2023-09-30T13:10:33;24.00;54.70
30467;DHT22;17258;52.560;13.046;2023-09-30T13:20:33;24.20;54.50
30467;DHT22;17258;52.560;13.046;2023-09-30T13:30:34;24.30;54.00
30467;DHT22;17258;52.560;13.046;2023-09-30T13:40:36;24.40;54.30
30467;DHT22;17258;52.560;13.046;2023-09-30T13:50:36;24.50;54.00
30467;DHT22;17258;52.560;13.046;2023-09-30T14:00:37;24.60;53.70
30467;DHT22;17258;52.560;13.046;2023-09-30T14:10:38;24.70;53.00
30467;DHT22;17258;52.560;13.046;2023-09-30T14:20:39;24.70;52.90
30467;DHT22;17258;52.560;13.046;2023-09-30T14:30:40;24.70;52.40
30467;DHT22;17258;52.560;13.046;2023-09-30T14:40:40;24.60;52.30
30467;DHT22;17258;52.560;13.046;2023-09-30T14:50:50;24.50;52.30
30467;DHT22;17258;52.560;13.046;2023-09-30T15:00:51;24.50;51.90
30467;DHT22;17258;52.560;13.046;2023-09-30T15:10:53;24.50;52.40
30467;DHT22;17258;52.560;13.046;2023-09-30T15:20:55;24.40;52.40
30467;DHT22;17258;52.560;13.046;2023-09-30T15:30:56;24.30;51.90
30467;DHT22;17258;52.560;13.046;2023-09-30T15:40:58;24.10;51.70
30467;DHT22;17258;52.560;13.046;2023-09-30T15:50:59;24.00;51.80
30467;DHT22;17258;52.560;13.046;2023-09-30T16:00:59;23.80;52.00
30467;DHT22;17258;52.560;13.046;2023-09-30T16:11:01;23.70;52.20
30467;DHT22;17258;52.560;13.046;2023-09-30T16:21:02;23.70;52.20
30467;DHT22;17258;52.560;13.046;2023-09-30T16:31:02;23.60;52.40
30467;DHT22;17258;52.560;13.046;2023-09-30T16:41:03;23.40;52.50
30467;DHT22;17258;52.560;13.046;2023-09-30T16:51:08;23.20;52.50
30467;DHT22;17258;52.560;13.046;2023-09-30T17:01:13;23.10;52.40
30467;DHT22;17258;52.560;13.046;2023-09-30T17:11:22;22.80;52.60
30467;DHT22;17258;52.560;13.046;2023-09-30T17:21:23;22.50;52.50
30467;DHT22;17258;52.560;13.046;2023-09-30T17:31:24;22.20;53.40
30467;DHT22;17258;52.560;13.046;2023-09-30T17:41:25;21.90;52.90
30467;DHT22;17258;52.560;13.046;2023-09-30T17:51:25;21.50;52.90
30467;DHT22;17258;52.560;13.046;2023-09-30T18:01:26;21.30;53.20
30467;DHT22;17258;52.560;13.046;2023-09-30T18:11:27;20.90;53.20
30467;DHT22;17258;52.560;13.046;2023-09-30T18:21:27;20.70;53.40
30467;DHT22;17258;52.560;13.046;2023-09-30T18:31:28;20.40;53.50
30467;DHT22;17258;52.560;13.046;2023-09-30T18:41:29;20.10;53.60
30467;DHT22;17258;52.560;13.046;2023-09-30T18:51:29;19.80;53.70
30467;DHT22;17258;52.560;13.046;2023-09-30T19:01:30;19.50;53.90
30467;DHT22;17258;52.560;13.046;2023-09-30T19:11:31;19.30;54.10
30467;DHT22;17258;52.560;13.046;2023-09-30T19:21:32;19.10;54.30
30467;DHT22;17258;52.560;13.046;2023-09-30T19:31:34;18.90;54.40
30467;DHT22;17258;52.560;13.046;2023-09-30T19:41:34;18.70;54.30
30467;DHT22;17258;52.560;13.046;2023-09-30T19:51:39;18.60;54.60
30467;DHT22;17258;52.560;13.046;2023-09-30T20:01:41;18.40;54.70
30467;DHT22;17258;52.560;13.046;2023-09-30T20:11:42;18.20;54.80
30467;DHT22;17258;52.560;13.046;2023-09-30T20:21:43;18.10;55.00
30467;DHT22;17258;52.560;13.046;2023-09-30T20:31:44;17.90;55.10
30467;DHT22;17258;52.560;13.046;2023-09-30T20:41:44;17.90;55.40
30467;DHT22;17258;52.560;13.046;2023-09-30T20:51:45;17.70;55.50
30467;DHT22;17258;52.560;13.046;2023-09-30T21:01:47;17.70;55.70
30467;DHT22;17258;52.560;13.046;2023-09-30T21:11:49;17.60;55.70
30467;DHT22;17258;52.560;13.046;2023-09-30T21:21:49;17.60;55.90
30467;DHT22;17258;52.560;13.046;2023-09-30T21:31:50;17.50;56.00
30467;DHT22;17258;52.560;13.046;2023-09-30T21:41:51;17.50;56.00
30467;DHT22;17258;52.560;13.046;2023-09-30T21:51:52;17.50;56.00
30467;DHT22;17258;52.560;13.046;2023-09-30T22:01:52;17.40;56.20
30467;DHT22;17258;52.560;13.046;2023-09-30T22:11:53;17.40;56.30
30467;DHT22;17258;52.560;13.046;2023-09-30T22:21:54;17.40;56.60
30467;DHT22;17258;52.560;13.046;2023-09-30T22:31:54;17.40;56.70
30467;DHT22;17258;52.560;13.046;2023-09-30T22:41:55;17.40;56.80
30467;DHT22;17258;52.560;13.046;2023-09-30T22:51:55;17.40;56.90
30467;DHT22;17258;52.560;13.046;2023-09-30T23:01:56;17.50;57.00
30467;DHT22;17258;52.560;13.046;2023-09-30T23:11:58;17.60;57.10
30467;DHT22;17258;52.560;13.046;2023-09-30T23:21:59;17.60;57.10
30467;DHT22;17258;52.560;13.046;2023-09-30T23:32:01;17.70;57.10
30467;DHT22;17258;52.560;13.046;2023-09-30T23:42:03;17.70;57.20
30467;DHT22;17258;52.560;13.046;2023-09-30T23:52:04;17.80;57.20
